createdAt,value
2018-01-20T00:00:52.958Z,3.87
2018-01-20T00:01:53.179Z,3.87
2018-01-20T00:02:53.290Z,3.87
2018-01-20T00:03:52.906Z,3.87
2018-01-20T00:04:53.555Z,3.87
2018-01-20T00:05:54.006Z,3.87
2018-01-20T00:06:53.053Z,3.87
2018-01-20T00:07:53.248Z,3.81
2018-01-20T00:08:53.063Z,3.87
2018-01-20T00:09:53.110Z,3.81
2018-01-20T00:10:53.067Z,3.81
2018-01-20T00:11:53.790Z,3.81
2018-01-20T00:12:53.374Z,3.87
2018-01-20T00:13:52.672Z,3.81
2018-01-20T00:14:53.943Z,3.81
2018-01-20T00:15:53.032Z,3.81
2018-01-20T00:16:53.687Z,3.81
2018-01-20T00:17:53.152Z,3.81
2018-01-20T00:18:53.010Z,3.81
2018-01-20T00:19:52.906Z,3.81
2018-01-20T00:20:52.691Z,3.81
2018-01-20T00:21:54.117Z,3.87
2018-01-20T00:22:53.964Z,3.81
2018-01-20T00:23:55.483Z,3.81
2018-01-20T00:24:53.894Z,3.81
2018-01-20T00:25:52.985Z,3.81
2018-01-20T00:26:52.725Z,3.81
2018-01-20T00:27:54.072Z,3.81
2018-01-20T00:28:52.988Z,3.81
2018-01-20T00:29:54.577Z,3.81
2018-01-20T00:30:53.926Z,3.81
2018-01-20T00:31:54.010Z,3.81
2018-01-20T00:32:53.409Z,3.81
2018-01-20T00:33:53.740Z,3.81
2018-01-20T00:34:53.240Z,3.81
2018-01-20T00:35:53.179Z,3.81
2018-01-20T00:36:53.445Z,3.81
2018-01-20T00:37:54.675Z,3.81
2018-01-20T00:38:53.794Z,3.81
2018-01-20T00:39:53.182Z,3.81
2018-01-20T00:40:53.828Z,3.81
2018-01-20T00:41:53.262Z,3.81
2018-01-20T00:42:52.801Z,3.81
2018-01-20T00:43:53.668Z,3.81
2018-01-20T00:44:54.531Z,3.81
2018-01-20T00:45:52.750Z,3.81
2018-01-20T00:46:52.988Z,3.81
2018-01-20T00:47:52.806Z,3.81
2018-01-20T00:48:53.248Z,3.75
2018-01-20T00:49:53.633Z,3.81
2018-01-20T00:50:52.699Z,3.81
2018-01-20T00:51:53.303Z,3.81
2018-01-20T00:52:54.844Z,3.75
2018-01-20T00:53:53.739Z,3.81
2018-01-20T00:54:53.769Z,3.81
2018-01-20T00:55:53.870Z,3.81
2018-01-20T00:56:54.077Z,3.81
2018-01-20T00:57:53.574Z,3.81
2018-01-20T00:58:54.209Z,3.81
2018-01-20T00:59:53.106Z,3.81
2018-01-20T01:00:54.113Z,3.81
2018-01-20T01:01:53.626Z,3.81
2018-01-20T01:02:53.623Z,3.81
2018-01-20T01:03:53.676Z,3.81
2018-01-20T01:04:53.133Z,3.81
2018-01-20T01:05:54.153Z,3.81
2018-01-20T01:06:53.220Z,3.81
2018-01-20T01:07:52.954Z,3.81
2018-01-20T01:08:53.796Z,3.81
2018-01-20T01:09:53.261Z,3.81
2018-01-20T01:10:55.312Z,3.81
2018-01-20T01:11:52.930Z,3.81
2018-01-20T01:12:53.244Z,3.81
2018-01-20T01:13:52.921Z,3.87
2018-01-20T01:14:52.911Z,3.81
2018-01-20T01:15:53.778Z,3.81
2018-01-20T01:16:53.376Z,3.81
2018-01-20T01:17:53.469Z,3.81
2018-01-20T01:18:53.506Z,3.81
2018-01-20T01:19:53.977Z,3.81
2018-01-20T01:20:53.781Z,3.81
2018-01-20T01:21:54.141Z,3.81
2018-01-20T01:22:52.879Z,3.81
2018-01-20T01:23:52.857Z,3.75
2018-01-20T01:24:53.751Z,3.75
2018-01-20T01:25:53.543Z,3.81
2018-01-20T01:26:52.012Z,3.81
2018-01-20T01:27:53.350Z,3.81
2018-01-20T01:28:52.550Z,3.81
2018-01-20T01:29:52.684Z,3.81
2018-01-20T01:30:52.012Z,3.81
2018-01-20T01:31:52.223Z,3.75
2018-01-20T01:32:52.091Z,3.75
2018-01-20T01:33:52.944Z,3.75
2018-01-20T01:34:52.127Z,3.75
2018-01-20T01:35:52.713Z,3.81
2018-01-20T01:36:53.377Z,3.81
2018-01-20T01:37:53.336Z,3.81
2018-01-20T01:38:54.228Z,3.81
2018-01-20T01:39:52.699Z,3.81
2018-01-20T01:40:52.150Z,3.75
2018-01-20T01:41:53.493Z,3.81
2018-01-20T01:42:53.085Z,3.81
2018-01-20T01:43:52.013Z,3.81
2018-01-20T01:44:54.038Z,3.75
2018-01-20T01:45:51.895Z,3.75
2018-01-20T01:46:52.831Z,3.75
2018-01-20T01:47:52.416Z,3.75
2018-01-20T01:48:52.358Z,3.75
2018-01-20T01:49:52.488Z,3.75
2018-01-20T01:50:53.152Z,3.75
2018-01-20T01:51:53.038Z,3.75
2018-01-20T01:52:53.160Z,3.75
2018-01-20T01:53:52.016Z,3.75
2018-01-20T01:54:52.179Z,3.81
2018-01-20T01:55:52.811Z,3.75
2018-01-20T01:56:52.154Z,3.75
2018-01-20T01:57:52.387Z,3.75
2018-01-20T01:58:52.349Z,3.75
2018-01-20T01:59:52.289Z,3.81
2018-01-20T02:00:52.103Z,3.75
2018-01-20T02:01:52.380Z,3.81
2018-01-20T02:02:52.631Z,3.75
2018-01-20T02:03:52.175Z,3.75
2018-01-20T02:04:53.515Z,3.75
2018-01-20T02:05:52.900Z,3.75
2018-01-20T02:06:52.413Z,3.75
2018-01-20T02:07:52.188Z,3.75
2018-01-20T02:08:52.759Z,3.75
2018-01-20T02:09:54.454Z,3.75
2018-01-20T02:10:52.855Z,3.75
2018-01-20T02:11:53.353Z,3.81
2018-01-20T02:12:52.744Z,3.75
2018-01-20T02:13:52.274Z,3.75
2018-01-20T02:14:52.043Z,3.75
2018-01-20T02:15:52.847Z,3.75
2018-01-20T02:16:52.324Z,3.75
2018-01-20T02:17:53.008Z,3.69
2018-01-20T02:18:52.024Z,3.69
2018-01-20T02:19:52.408Z,3.69
2018-01-20T02:20:53.036Z,3.69
2018-01-20T02:21:52.159Z,3.69
2018-01-20T02:22:53.235Z,3.69
2018-01-20T02:23:52.576Z,3.62
2018-01-20T02:24:52.055Z,3.62
2018-01-20T02:25:52.454Z,3.62
2018-01-20T02:26:53.880Z,3.56
2018-01-20T02:27:52.940Z,3.62
2018-01-20T02:28:52.481Z,3.62
2018-01-20T02:29:54.261Z,3.62
2018-01-20T02:30:52.585Z,3.62
2018-01-20T02:31:53.021Z,3.62
2018-01-20T02:32:53.795Z,3.62
2018-01-20T02:33:52.442Z,3.69
2018-01-20T02:34:52.151Z,3.62
2018-01-20T02:35:51.899Z,3.69
2018-01-20T02:36:52.391Z,3.62
2018-01-20T02:37:52.400Z,3.62
2018-01-20T02:38:53.346Z,3.62
2018-01-20T02:39:52.484Z,3.62
2018-01-20T02:40:53.324Z,3.62
2018-01-20T02:41:52.308Z,3.56
2018-01-20T02:42:52.487Z,3.62
2018-01-20T02:43:52.342Z,3.62
2018-01-20T02:44:54.247Z,3.62
2018-01-20T02:45:52.319Z,3.62
2018-01-20T02:46:52.148Z,3.62
2018-01-20T02:47:52.060Z,3.62
2018-01-20T02:48:52.860Z,3.62
2018-01-20T02:49:52.208Z,3.56
2018-01-20T02:50:52.931Z,3.62
2018-01-20T02:51:52.145Z,3.62
2018-01-20T02:52:52.212Z,3.62
2018-01-20T02:53:53.560Z,3.56
2018-01-20T02:54:53.298Z,3.56
2018-01-20T02:55:54.295Z,3.62
2018-01-20T02:56:52.010Z,3.56
2018-01-20T02:57:52.403Z,3.56
2018-01-20T02:58:53.907Z,3.5
2018-01-20T02:59:52.587Z,3.56
2018-01-20T03:00:52.951Z,3.5
2018-01-20T03:01:52.385Z,3.5
2018-01-20T03:02:52.322Z,3.44
2018-01-20T03:03:52.035Z,3.44
2018-01-20T03:04:52.436Z,3.31
2018-01-20T03:05:53.204Z,3.25
2018-01-20T03:06:52.684Z,3.19
2018-01-20T03:07:51.982Z,3.06
2018-01-20T03:08:52.322Z,3.06
2018-01-20T03:09:53.095Z,3.06
2018-01-20T03:10:52.085Z,2.94
2018-01-20T03:11:53.522Z,2.94
2018-01-20T03:12:52.874Z,2.94
2018-01-20T03:13:52.255Z,2.87
2018-01-20T03:14:53.616Z,2.87
2018-01-20T03:15:53.637Z,2.87
2018-01-20T03:16:52.706Z,2.87
2018-01-20T03:17:51.952Z,2.87
2018-01-20T03:18:52.319Z,2.87
2018-01-20T03:19:53.273Z,2.87
2018-01-20T03:20:53.465Z,2.87
2018-01-20T03:21:52.698Z,2.94
2018-01-20T03:22:52.152Z,2.87
2018-01-20T03:23:51.951Z,2.94
2018-01-20T03:24:55.554Z,2.87
2018-01-20T03:25:52.598Z,2.94
2018-01-20T03:26:52.893Z,2.94
2018-01-20T03:27:52.797Z,2.94
2018-01-20T03:28:54.928Z,2.94
2018-01-20T03:29:52.626Z,2.94
2018-01-20T03:30:52.376Z,2.94
2018-01-20T03:31:53.146Z,2.94
2018-01-20T03:32:52.364Z,2.94
2018-01-20T03:33:52.714Z,2.94
2018-01-20T03:34:54.350Z,2.94
2018-01-20T03:35:53.676Z,2.94
2018-01-20T03:36:53.521Z,2.94
2018-01-20T03:37:53.629Z,2.94
2018-01-20T03:38:53.277Z,2.94
2018-01-20T03:39:52.232Z,2.87
2018-01-20T03:40:52.830Z,2.94
2018-01-20T03:41:52.934Z,2.94
2018-01-20T03:42:52.216Z,2.94
2018-01-20T03:43:52.437Z,2.94
2018-01-20T03:44:53.684Z,3
2018-01-20T03:45:52.319Z,3
2018-01-20T03:46:52.280Z,3
2018-01-20T03:47:52.971Z,2.94
2018-01-20T03:48:52.176Z,3
2018-01-20T03:49:53.059Z,3
2018-01-20T03:50:52.068Z,3
2018-01-20T03:51:53.625Z,3
2018-01-20T03:52:53.018Z,3
2018-01-20T03:53:53.122Z,3.06
2018-01-20T03:54:52.784Z,3.06
2018-01-20T03:55:53.678Z,3.06
2018-01-20T03:56:53.831Z,3.06
2018-01-20T03:57:52.606Z,3.12
2018-01-20T03:58:53.190Z,3.06
2018-01-20T03:59:52.410Z,3.12
2018-01-20T04:00:52.505Z,3.06
2018-01-20T04:01:53.494Z,3.06
2018-01-20T04:02:53.898Z,3.06
2018-01-20T04:03:52.454Z,3.06
2018-01-20T04:04:52.600Z,3.06
2018-01-20T04:05:52.333Z,3.06
2018-01-20T04:06:52.324Z,3.06
2018-01-20T04:07:52.945Z,3.06
2018-01-20T04:08:51.952Z,3.06
2018-01-20T04:09:52.892Z,3.06
2018-01-20T04:10:52.399Z,3.06
2018-01-20T04:11:53.308Z,3.06
2018-01-20T04:12:53.122Z,3.06
2018-01-20T04:13:52.473Z,3.06
2018-01-20T04:14:54.155Z,3.06
2018-01-20T04:15:52.894Z,3
2018-01-20T04:16:52.973Z,3
2018-01-20T04:17:53.367Z,2.94
2018-01-20T04:18:52.027Z,3
2018-01-20T04:19:52.847Z,3.06
2018-01-20T04:20:52.437Z,3
2018-01-20T04:21:52.454Z,3.06
2018-01-20T04:22:53.129Z,3.06
2018-01-20T04:23:53.566Z,3.06
2018-01-20T04:24:52.743Z,3
2018-01-20T04:25:52.352Z,3.06
2018-01-20T04:26:52.383Z,3.06
2018-01-20T04:27:53.891Z,3.06
2018-01-20T04:28:54.045Z,3.06
2018-01-20T04:29:52.552Z,3.06
2018-01-20T04:30:52.930Z,3.06
2018-01-20T04:31:53.224Z,3.06
2018-01-20T04:32:52.196Z,3.06
2018-01-20T04:33:54.711Z,3.06
2018-01-20T04:34:52.514Z,3.12
2018-01-20T04:35:52.306Z,3.06
2018-01-20T04:36:54.588Z,3.06
2018-01-20T04:37:53.525Z,3.06
2018-01-20T04:38:53.141Z,3.12
2018-01-20T04:39:52.143Z,3.06
2018-01-20T04:40:52.285Z,3.06
2018-01-20T04:41:53.162Z,3.06
2018-01-20T04:42:53.746Z,3.06
2018-01-20T04:43:54.947Z,3.06
2018-01-20T04:44:52.533Z,3.06
2018-01-20T04:45:52.962Z,3.06
2018-01-20T04:46:52.615Z,3.06
2018-01-20T04:47:52.445Z,3.06
2018-01-20T04:48:52.876Z,3.06
2018-01-20T04:49:52.933Z,3.06
2018-01-20T04:50:52.280Z,3.06
2018-01-20T04:51:52.685Z,3.06
2018-01-20T04:52:52.180Z,3.06
2018-01-20T04:53:52.308Z,3.06
2018-01-20T04:54:52.110Z,3.06
2018-01-20T04:55:53.894Z,3.06
2018-01-20T04:56:52.775Z,3.06
2018-01-20T04:57:52.385Z,3.12
2018-01-20T04:58:52.879Z,3.06
2018-01-20T04:59:52.961Z,3.06
2018-01-20T05:00:52.748Z,3.06
2018-01-20T05:01:52.470Z,3.06
2018-01-20T05:02:54.673Z,3.06
2018-01-20T05:03:54.463Z,3.06
2018-01-20T05:04:52.540Z,3
2018-01-20T05:05:52.156Z,3.06
2018-01-20T05:06:53.665Z,3.06
2018-01-20T05:07:53.158Z,3
2018-01-20T05:08:52.119Z,3.06
2018-01-20T05:09:53.496Z,3.06
2018-01-20T05:10:53.342Z,3.06
2018-01-20T05:11:52.337Z,3.06
2018-01-20T05:12:53.062Z,3.06
2018-01-20T05:13:53.212Z,3.06
2018-01-20T05:14:52.477Z,3.06
2018-01-20T05:15:53.267Z,3.06
2018-01-20T05:16:52.938Z,3
2018-01-20T05:17:52.647Z,3.06
2018-01-20T05:18:53.962Z,3
2018-01-20T05:19:52.218Z,3.06
2018-01-20T05:20:52.406Z,3
2018-01-20T05:21:52.960Z,3
2018-01-20T05:22:53.468Z,3
2018-01-20T05:23:53.277Z,3
2018-01-20T05:24:53.109Z,3.06
2018-01-20T05:25:52.818Z,3
2018-01-20T05:26:52.675Z,3
2018-01-20T05:27:52.693Z,3.06
2018-01-20T05:28:52.799Z,3
2018-01-20T05:29:52.681Z,3.06
2018-01-20T05:30:52.559Z,3.06
2018-01-20T05:31:53.544Z,3.06
2018-01-20T05:32:52.661Z,3.06
2018-01-20T05:33:54.005Z,3.06
2018-01-20T05:34:53.037Z,3.06
2018-01-20T05:35:53.517Z,3.06
2018-01-20T05:36:53.003Z,3.06
2018-01-20T05:37:52.875Z,3.06
2018-01-20T05:38:53.188Z,3.12
2018-01-20T05:39:52.547Z,3.12
2018-01-20T05:40:52.587Z,3.12
2018-01-20T05:41:52.711Z,3.12
2018-01-20T05:42:52.566Z,3.12
2018-01-20T05:43:53.080Z,3.12
2018-01-20T05:44:52.472Z,3.12
2018-01-20T05:45:53.784Z,3.12
2018-01-20T05:46:53.304Z,3.12
2018-01-20T05:47:55.093Z,3.12
2018-01-20T05:48:53.833Z,3.19
2018-01-20T05:49:52.379Z,3.19
2018-01-20T05:50:53.985Z,3.12
2018-01-20T05:51:52.717Z,3.12
2018-01-20T05:52:53.152Z,3.12
2018-01-20T05:53:53.393Z,3.19
2018-01-20T05:54:53.044Z,3.12
2018-01-20T05:55:52.323Z,3.19
2018-01-20T05:56:53.194Z,3.19
2018-01-20T05:57:54.640Z,3.19
2018-01-20T05:58:52.732Z,3.19
2018-01-20T05:59:52.560Z,3.25
2018-01-20T06:00:52.603Z,3.19
2018-01-20T06:01:52.424Z,3.19
2018-01-20T06:02:52.315Z,3.25
2018-01-20T06:03:52.342Z,3.19
2018-01-20T06:04:52.458Z,3.25
2018-01-20T06:05:52.382Z,3.25
2018-01-20T06:06:52.311Z,3.19
2018-01-20T06:07:52.555Z,3.19
2018-01-20T06:08:53.274Z,3.25
2018-01-20T06:09:53.795Z,3.19
2018-01-20T06:10:52.680Z,3.25
2018-01-20T06:11:52.466Z,3.25
2018-01-20T06:12:52.904Z,3.25
2018-01-20T06:13:52.185Z,3.25
2018-01-20T06:14:52.631Z,3.25
2018-01-20T06:15:52.230Z,3.25
2018-01-20T06:16:53.435Z,3.25
2018-01-20T06:17:52.890Z,3.25
2018-01-20T06:18:54.155Z,3.25
2018-01-20T06:19:55.250Z,3.25
2018-01-20T06:20:55.275Z,3.25
2018-01-20T06:21:54.885Z,3.25
2018-01-20T06:22:52.996Z,3.25
2018-01-20T06:23:52.748Z,3.25
2018-01-20T06:24:54.232Z,3.25
2018-01-20T06:25:52.967Z,3.31
2018-01-20T06:26:53.188Z,3.25
2018-01-20T06:27:53.800Z,3.31
2018-01-20T06:28:53.485Z,3.25
2018-01-20T06:29:53.840Z,3.31
2018-01-20T06:30:52.461Z,3.31
2018-01-20T06:31:52.616Z,3.31
2018-01-20T06:32:52.932Z,3.31
2018-01-20T06:33:52.540Z,3.31
2018-01-20T06:34:53.237Z,3.37
2018-01-20T06:35:53.423Z,3.37
2018-01-20T06:36:52.369Z,3.37
2018-01-20T06:37:54.041Z,3.37
2018-01-20T06:38:53.114Z,3.37
2018-01-20T06:39:52.478Z,3.37
2018-01-20T06:40:52.648Z,3.37
2018-01-20T06:41:52.585Z,3.37
2018-01-20T06:42:53.201Z,3.44
2018-01-20T06:43:52.671Z,3.37
2018-01-20T06:44:52.680Z,3.37
2018-01-20T06:45:53.635Z,3.37
2018-01-20T06:46:52.435Z,3.37
2018-01-20T06:47:53.822Z,3.44
2018-01-20T06:48:53.483Z,3.37
2018-01-20T06:49:52.945Z,3.44
2018-01-20T06:50:52.890Z,3.37
2018-01-20T06:51:52.564Z,3.44
2018-01-20T06:52:53.486Z,3.44
2018-01-20T06:53:52.579Z,3.44
2018-01-20T06:54:52.614Z,3.37
2018-01-20T06:55:53.780Z,3.44
2018-01-20T06:56:53.552Z,3.37
2018-01-20T06:57:52.436Z,3.37
2018-01-20T06:58:52.822Z,3.37
2018-01-20T06:59:54.112Z,3.37
2018-01-20T07:00:53.212Z,3.44
2018-01-20T07:01:53.040Z,3.37
2018-01-20T07:02:54.520Z,3.44
2018-01-20T07:03:53.339Z,3.44
2018-01-20T07:04:53.218Z,3.44
2018-01-20T07:05:52.493Z,3.44
2018-01-20T07:06:54.865Z,3.44
2018-01-20T07:07:53.502Z,3.37
2018-01-20T07:08:52.997Z,3.44
2018-01-20T07:09:52.615Z,3.44
2018-01-20T07:10:52.762Z,3.44
2018-01-20T07:11:52.473Z,3.44
2018-01-20T07:12:52.947Z,3.44
2018-01-20T07:14:41.450Z,3.44
2018-01-20T07:15:39.859Z,3.44
2018-01-20T07:17:24.949Z,3.44
2018-01-20T07:18:23.781Z,3.44
2018-01-20T07:19:23.580Z,3.44
2018-01-20T07:21:10.715Z,3.44
2018-01-20T07:22:11.702Z,3.5
2018-01-20T07:23:10.712Z,3.44
2018-01-20T07:24:11.445Z,3.44
2018-01-20T07:25:12.125Z,3.44
2018-01-20T07:26:14.043Z,3.44
2018-01-20T07:27:11.106Z,3.5
2018-01-20T07:28:11.366Z,3.5
2018-01-20T07:29:10.930Z,3.5
2018-01-20T07:30:10.645Z,3.5
2018-01-20T07:31:11.030Z,3.5
2018-01-20T07:32:13.347Z,3.44
2018-01-20T07:33:10.686Z,3.5
2018-01-20T07:34:10.659Z,3.5
2018-01-20T07:35:11.090Z,3.5
2018-01-20T07:36:11.149Z,3.5
2018-01-20T07:37:11.879Z,3.5
2018-01-20T07:38:11.054Z,3.5
2018-01-20T07:39:10.616Z,3.5
2018-01-20T07:40:10.793Z,3.5
2018-01-20T07:41:11.090Z,3.5
2018-01-20T07:42:11.443Z,3.5
2018-01-20T07:43:11.278Z,3.5
2018-01-20T07:44:12.103Z,3.5
2018-01-20T07:45:11.324Z,3.56
2018-01-20T07:46:11.828Z,3.56
2018-01-20T07:47:13.014Z,3.5
2018-01-20T07:48:11.235Z,3.56
2018-01-20T07:49:11.651Z,3.56
2018-01-20T07:50:10.923Z,3.56
2018-01-20T07:51:11.620Z,3.5
2018-01-20T07:52:12.169Z,3.56
2018-01-20T07:53:33.493Z,3.56
2018-01-20T07:54:11.175Z,3.56
2018-01-20T07:55:13.026Z,3.56
2018-01-20T07:56:11.681Z,3.56
2018-01-20T07:57:10.957Z,3.56
2018-01-20T07:58:32.227Z,3.56
2018-01-20T07:59:23.202Z,3.56
2018-01-20T08:00:22.305Z,3.56
2018-01-20T08:01:22.350Z,3.56
2018-01-20T08:02:22.357Z,3.56
2018-01-20T08:03:22.184Z,3.56
2018-01-20T08:04:21.892Z,3.56
2018-01-20T08:05:22.040Z,3.56
2018-01-20T08:06:22.604Z,3.56
2018-01-20T08:07:21.999Z,3.56
2018-01-20T08:08:23.062Z,3.56
2018-01-20T08:09:23.004Z,3.56
2018-01-20T08:10:22.912Z,3.62
2018-01-20T08:11:22.047Z,3.62
2018-01-20T08:12:22.753Z,3.62
2018-01-20T08:13:22.253Z,3.62
2018-01-20T08:14:22.007Z,3.62
2018-01-20T08:15:24.019Z,3.62
2018-01-20T08:16:22.087Z,3.69
2018-01-20T08:17:22.169Z,3.62
2018-01-20T08:18:24.548Z,3.69
2018-01-20T08:19:22.092Z,3.69
2018-01-20T08:20:22.355Z,3.69
2018-01-20T08:21:22.910Z,3.69
2018-01-20T08:23:12.218Z,3.69
2018-01-20T08:24:09.170Z,3.69
2018-01-20T08:25:08.780Z,3.69
2018-01-20T08:26:08.536Z,3.69
2018-01-20T08:27:09.459Z,3.75
2018-01-20T08:28:09.132Z,3.69
2018-01-20T08:29:10.997Z,3.75
2018-01-20T08:30:09.559Z,3.75
2018-01-20T08:31:09.769Z,3.81
2018-01-20T08:32:09.876Z,3.75
2018-01-20T08:33:09.869Z,3.81
2018-01-20T08:34:08.910Z,3.75
2018-01-20T08:35:08.606Z,3.81
2018-01-20T08:36:11.872Z,3.81
2018-01-20T08:37:12.603Z,3.81
2018-01-20T08:38:09.783Z,3.81
2018-01-20T08:39:10.216Z,3.81
2018-01-20T08:40:10.276Z,3.81
2018-01-20T08:43:12.794Z,3.87
2018-01-20T08:44:08.935Z,3.87
2018-01-20T08:45:08.848Z,3.87
2018-01-20T08:46:10.518Z,3.94
2018-01-20T08:47:08.642Z,3.94
2018-01-20T08:48:09.413Z,3.94
2018-01-20T08:49:08.602Z,3.94
2018-01-20T08:50:08.420Z,3.94
2018-01-20T08:51:09.947Z,3.87
2018-01-20T08:52:08.655Z,3.87
2018-01-20T08:53:09.811Z,3.94
2018-01-20T08:54:09.717Z,3.87
2018-01-20T08:55:09.990Z,3.94
2018-01-20T08:56:13.052Z,3.94
2018-01-20T08:57:14.483Z,4
2018-01-20T08:58:07.213Z,4
2018-01-20T08:59:06.951Z,4
2018-01-20T09:00:16.171Z,4
2018-01-20T09:01:09.218Z,4
2018-01-20T09:02:07.314Z,4.06
2018-01-20T09:03:06.477Z,4
2018-01-20T09:04:07.109Z,4.06
2018-01-20T09:05:09.090Z,4.06
2018-01-20T09:06:08.307Z,4.12
2018-01-20T09:07:08.260Z,4.06
2018-01-20T09:08:11.505Z,4.06
2018-01-20T09:09:09.279Z,4.06
2018-01-20T09:10:08.618Z,4.12
2018-01-20T09:11:09.148Z,4.06
2018-01-20T09:12:10.636Z,4.12
2018-01-20T09:13:09.294Z,4.12
2018-01-20T09:14:09.942Z,4.12
2018-01-20T09:15:09.227Z,4.12
2018-01-20T09:16:07.800Z,4.06
2018-01-20T09:17:11.390Z,4.12
2018-01-20T09:18:09.402Z,4.12
2018-01-20T09:19:09.012Z,4.19
2018-01-20T09:20:08.451Z,4.12
2018-01-20T09:21:08.309Z,4.19
2018-01-20T09:22:09.312Z,4.19
2018-01-20T09:23:08.004Z,4.19
2018-01-20T09:24:07.441Z,4.19
2018-01-20T09:25:07.476Z,4.19
2018-01-20T09:26:08.577Z,4.19
2018-01-20T09:27:09.617Z,4.25
2018-01-20T09:28:56.703Z,4.25
2018-01-20T09:29:01.593Z,4.25
2018-01-20T09:29:08.335Z,4.25
2018-01-20T09:29:14.761Z,4.31
2018-01-20T09:29:20.637Z,4.25
2018-01-20T09:29:27.062Z,4.31
2018-01-20T09:29:32.372Z,4.25
2018-01-20T09:29:38.232Z,4.25
2018-01-20T09:29:45.199Z,4.25
2018-01-20T09:29:50.075Z,4.25
2018-01-20T09:29:54.991Z,4.25
2018-01-20T09:30:01.536Z,4.31
2018-01-20T09:30:07.029Z,4.25
2018-01-20T09:30:16.197Z,4.31
2018-01-20T09:30:23.717Z,4.31
2018-01-20T09:30:29.708Z,4.31
2018-01-20T09:30:35.884Z,4.31
2018-01-20T09:30:49.972Z,4.25
2018-01-20T09:31:07.278Z,4.31
2018-01-20T09:31:38.849Z,4.31
2018-01-20T09:31:54.478Z,4.31
2018-01-20T09:32:03.064Z,4.31
2018-01-20T09:32:11.345Z,4.31
2018-01-20T09:32:18.317Z,4.31
2018-01-20T09:32:26.716Z,4.31
2018-01-20T09:32:31.716Z,4.37
2018-01-20T09:32:36.543Z,4.31
2018-01-20T09:32:43.471Z,4.31
2018-01-20T09:32:48.616Z,4.31
2018-01-20T09:32:54.988Z,4.31
2018-01-20T09:32:59.984Z,4.37
2018-01-20T09:33:06.418Z,4.31
2018-01-20T09:33:11.590Z,4.37
2018-01-20T09:33:19.553Z,4.31
2018-01-20T09:33:24.783Z,4.37
2018-01-20T09:33:30.609Z,4.31
2018-01-20T09:33:35.733Z,4.37
2018-01-20T09:33:41.264Z,4.37
2018-01-20T09:33:48.548Z,4.37
2018-01-20T09:33:56.285Z,4.31
2018-01-20T09:34:03.782Z,4.37
2018-01-20T09:34:09.141Z,4.37
2018-01-20T09:34:14.519Z,4.31
2018-01-20T09:34:19.777Z,4.31
2018-01-20T09:34:25.505Z,4.31
2018-01-20T09:34:32.246Z,4.37
2018-01-20T09:34:36.936Z,4.37
2018-01-20T09:34:42.388Z,4.37
2018-01-20T09:35:16.572Z,4.37
2018-01-20T09:35:23.458Z,4.31
2018-01-20T09:35:28.296Z,4.37
2018-01-20T09:35:35.869Z,4.37
2018-01-20T09:35:41.699Z,4.37
2018-01-20T09:35:53.026Z,4.31
2018-01-20T09:35:59.133Z,4.37
2018-01-20T09:36:05.675Z,4.37
2018-01-20T09:36:14.401Z,4.37
2018-01-20T09:37:07.256Z,4.37
2018-01-20T09:38:06.890Z,4.37
2018-01-20T09:39:12.648Z,4.37
2018-01-20T09:40:07.348Z,4.37
2018-01-20T09:41:06.989Z,4.44
2018-01-20T09:42:07.470Z,4.44
2018-01-20T09:43:06.995Z,4.44
2018-01-20T09:44:07.022Z,4.44
2018-01-20T09:45:06.911Z,4.44
2018-01-20T09:46:07.050Z,4.44
2018-01-20T09:47:07.172Z,4.44
2018-01-20T09:48:06.870Z,4.44
2018-01-20T09:49:06.992Z,4.44
2018-01-20T09:50:06.975Z,4.5
2018-01-20T09:51:07.725Z,4.5
2018-01-20T09:52:07.009Z,4.44
2018-01-20T09:53:06.919Z,4.44
2018-01-20T09:54:06.924Z,4.44
2018-01-20T09:55:07.418Z,4.44
2018-01-20T09:56:07.282Z,4.44
2018-01-20T09:57:07.327Z,4.44
2018-01-20T09:58:07.308Z,4.44
2018-01-20T09:59:07.194Z,4.44
2018-01-20T10:00:06.917Z,4.37
2018-01-20T10:01:06.948Z,4.37
2018-01-20T10:02:08.093Z,4.31
2018-01-20T10:03:07.128Z,4.37
2018-01-20T10:04:06.968Z,4.37
2018-01-20T10:05:12.738Z,4.37
2018-01-20T10:06:10.129Z,4.37
2018-01-20T10:07:07.025Z,4.31
2018-01-20T10:08:08.327Z,4.31
2018-01-20T10:09:10.281Z,4.31
2018-01-20T10:10:09.066Z,4.31
2018-01-20T10:11:06.081Z,4.31
2018-01-20T10:12:20.478Z,4.31
2018-01-20T10:13:06.186Z,4.31
2018-01-20T10:14:05.830Z,4.31
2018-01-20T10:15:06.024Z,4.31
2018-01-20T10:16:06.295Z,4.25
2018-01-20T10:17:06.486Z,4.19
2018-01-20T10:18:06.052Z,4.19
2018-01-20T10:19:06.169Z,4.19
2018-01-20T10:20:05.995Z,4.25
2018-01-20T10:21:06.199Z,4.19
2018-01-20T10:22:06.027Z,4.25
2018-01-20T10:23:06.075Z,4.25
2018-01-20T10:24:06.308Z,4.19
2018-01-20T10:25:06.144Z,4.25
2018-01-20T10:26:05.981Z,4.25
2018-01-20T10:27:06.012Z,4.25
2018-01-20T10:28:05.939Z,4.25
2018-01-20T10:29:06.365Z,4.25
2018-01-20T10:30:05.920Z,4.25
2018-01-20T10:31:06.130Z,4.25
2018-01-20T10:32:06.152Z,4.25
2018-01-20T10:33:06.280Z,4.19
2018-01-20T10:34:06.286Z,4.19
2018-01-20T10:35:06.186Z,4.19
2018-01-20T10:36:05.961Z,4.25
2018-01-20T10:37:06.208Z,4.19
2018-01-20T10:38:07.598Z,4.19
2018-01-20T10:39:06.914Z,4.25
2018-01-20T10:40:06.146Z,4.25
2018-01-20T10:41:08.684Z,4.19
2018-01-20T10:42:06.922Z,4.25
2018-01-20T10:43:06.121Z,4.19
2018-01-20T10:44:06.089Z,4.25
2018-01-20T10:45:06.019Z,4.19
2018-01-20T10:46:06.437Z,4.25
2018-01-20T10:47:06.067Z,4.25
2018-01-20T10:48:06.170Z,4.25
2018-01-20T10:49:06.290Z,4.25
2018-01-20T10:50:06.042Z,4.25
2018-01-20T10:51:06.198Z,4.31
2018-01-20T10:52:06.109Z,4.25
2018-01-20T10:53:06.101Z,4.31
2018-01-20T10:54:06.095Z,4.31
2018-01-20T10:55:06.195Z,4.31
2018-01-20T10:56:06.065Z,4.31
2018-01-20T10:57:06.504Z,4.31
2018-01-20T10:58:06.297Z,4.31
2018-01-20T10:59:06.167Z,4.31
2018-01-20T11:00:07.006Z,4.31
2018-01-20T11:01:06.178Z,4.37
2018-01-20T11:02:06.066Z,4.31
2018-01-20T11:03:06.166Z,4.37
2018-01-20T11:04:06.497Z,4.44
2018-01-20T11:05:06.441Z,4.37
2018-01-20T11:06:05.874Z,4.44
2018-01-20T11:07:05.937Z,4.44
2018-01-20T11:08:06.057Z,4.5
2018-01-20T11:09:06.302Z,4.44
2018-01-20T11:10:06.244Z,4.5
2018-01-20T11:11:06.214Z,4.5
2018-01-20T11:12:06.195Z,4.56
2018-01-20T11:13:06.114Z,4.56
2018-01-20T11:14:06.220Z,4.56
2018-01-20T11:15:06.231Z,4.56
2018-01-20T11:16:06.454Z,4.5
2018-01-20T11:17:06.727Z,4.5
2018-01-20T11:18:06.146Z,4.5
2018-01-20T11:19:06.225Z,4.5
2018-01-20T11:20:06.262Z,4.5
2018-01-20T11:21:06.424Z,4.56
2018-01-20T11:22:06.185Z,4.5
2018-01-20T11:23:06.268Z,4.56
2018-01-20T11:24:06.415Z,4.56
2018-01-20T11:25:06.141Z,4.56
2018-01-20T11:26:06.146Z,4.56
2018-01-20T11:27:06.334Z,4.56
2018-01-20T11:28:06.444Z,4.56
2018-01-20T11:29:06.344Z,4.56
2018-01-20T11:30:06.265Z,4.56
2018-01-20T11:31:06.371Z,4.56
2018-01-20T11:32:06.247Z,4.56
2018-01-20T11:33:06.308Z,4.56
2018-01-20T11:34:06.298Z,4.62
2018-01-20T11:35:06.201Z,4.56
2018-01-20T11:36:06.637Z,4.62
2018-01-20T11:37:06.302Z,4.56
2018-01-20T11:38:06.216Z,4.56
2018-01-20T11:39:06.431Z,4.56
2018-01-20T11:40:06.198Z,4.56
2018-01-20T11:41:06.446Z,4.62
2018-01-20T11:42:06.360Z,4.62
2018-01-20T11:43:06.572Z,4.56
2018-01-20T11:44:08.318Z,4.56
2018-01-20T11:45:08.159Z,4.62
2018-01-20T11:46:06.559Z,4.62
2018-01-20T11:47:06.649Z,4.56
2018-01-20T11:48:06.538Z,4.62
2018-01-20T11:49:06.701Z,4.62
2018-01-20T11:50:06.599Z,4.62
2018-01-20T11:51:07.031Z,4.56
2018-01-20T11:52:06.898Z,4.62
2018-01-20T11:53:06.288Z,4.56
2018-01-20T11:54:06.634Z,4.62
2018-01-20T11:55:06.425Z,4.56
2018-01-20T11:56:06.806Z,4.62
2018-01-20T11:57:06.752Z,4.62
2018-01-20T11:58:07.556Z,4.62
2018-01-20T11:59:06.619Z,4.62
2018-01-20T12:00:06.351Z,4.56
2018-01-20T12:01:07.967Z,4.62
2018-01-20T12:02:07.551Z,4.62
2018-01-20T12:03:06.226Z,4.62
2018-01-20T12:04:06.195Z,4.56
2018-01-20T12:05:06.365Z,4.62
2018-01-20T12:06:06.490Z,4.56
2018-01-20T12:07:06.373Z,4.62
2018-01-20T12:08:06.517Z,4.62
2018-01-20T12:09:06.229Z,4.56
2018-01-20T12:10:06.187Z,4.62
2018-01-20T12:11:06.497Z,4.56
2018-01-20T12:12:06.235Z,4.62
2018-01-20T12:13:06.495Z,4.56
2018-01-20T12:14:06.546Z,4.62
2018-01-20T12:15:06.457Z,4.62
2018-01-20T12:16:06.426Z,4.62
2018-01-20T12:17:06.719Z,4.62
2018-01-20T12:18:06.446Z,4.62
2018-01-20T12:19:06.263Z,4.62
2018-01-20T12:20:06.383Z,4.62
2018-01-20T12:21:06.172Z,4.62
2018-01-20T12:22:06.194Z,4.62
2018-01-20T12:23:06.434Z,4.62
2018-01-20T12:24:06.366Z,4.62
2018-01-20T12:25:06.268Z,4.62
2018-01-20T12:26:06.350Z,4.62
2018-01-20T12:27:06.240Z,4.62
2018-01-20T12:28:06.230Z,4.62
2018-01-20T12:29:06.439Z,4.62
2018-01-20T12:30:06.115Z,4.62
2018-01-20T12:31:06.269Z,4.62
2018-01-20T12:32:06.267Z,4.62
2018-01-20T12:33:06.255Z,4.62
2018-01-20T12:34:06.379Z,4.69
2018-01-20T12:35:07.612Z,4.62
2018-01-20T12:36:06.230Z,4.62
2018-01-20T12:37:06.205Z,4.62
2018-01-20T12:38:06.374Z,4.69
2018-01-20T12:39:06.336Z,4.62
2018-01-20T12:40:06.342Z,4.62